createdAt,value
2023-11-16T00:00:01.403Z,43.9
2023-11-16T00:07:34.043Z,43.9
2023-11-16T00:15:06.517Z,43.9
2023-11-16T00:22:39.061Z,43.9
2023-11-16T00:30:11.577Z,43.9
2023-11-16T00:37:44.063Z,43.8
2023-11-16T00:45:16.538Z,43.7
2023-11-16T00:52:49.035Z,43.7
2023-11-16T01:00:21.495Z,43.7
2023-11-16T01:07:54.146Z,43.6
2023-11-16T01:15:26.651Z,43.7
2023-11-16T01:22:59.160Z,43.7
2023-11-16T01:30:31.618Z,43.6
2023-11-16T01:38:04.234Z,43.6
2023-11-16T01:45:36.742Z,43.5
2023-11-16T01:53:09.270Z,43.5
2023-11-16T02:00:41.766Z,43.5
2023-11-16T02:08:14.202Z,43.5
2023-11-16T02:15:46.628Z,43.5
2023-11-16T02:23:19.255Z,43.5
2023-11-16T02:30:51.734Z,43.6
2023-11-16T02:38:24.171Z,43.4
2023-11-16T02:45:56.600Z,43.9
2023-11-16T02:53:29.043Z,43.3
2023-11-16T03:01:01.577Z,43.3
2023-11-16T03:08:34.038Z,43.3
2023-11-16T03:16:06.496Z,43.3
2023-11-16T03:23:38.926Z,43.3
2023-11-16T03:31:11.447Z,43.3
2023-11-16T03:38:43.912Z,43.3
2023-11-16T03:46:16.357Z,43.3
2023-11-16T03:53:48.842Z,43.3
2023-11-16T04:01:21.265Z,43.3
2023-11-16T04:08:53.700Z,43.3
2023-11-16T04:16:26.140Z,43.3
2023-11-16T04:23:58.607Z,43.3
2023-11-16T04:31:31.104Z,43.3
2023-11-16T04:39:03.576Z,43.3
2023-11-16T04:46:36.060Z,43.3
2023-11-16T04:54:08.576Z,43.3
2023-11-16T05:01:41.141Z,43.3
2023-11-16T05:09:13.661Z,43.3
2023-11-16T05:16:46.106Z,43.2
2023-11-16T05:19:18.506Z,43.2
2023-11-16T05:20:06.021Z,43.1
2023-11-16T05:20:53.447Z,43.2
2023-11-16T05:21:40.869Z,42.9
2023-11-16T05:22:28.378Z,42.1
2023-11-16T05:23:15.823Z,41.5
2023-11-16T05:24:03.296Z,41.2
2023-11-16T05:24:50.767Z,41.0
2023-11-16T05:25:38.291Z,40.7
2023-11-16T05:26:25.716Z,40.6
2023-11-16T05:27:13.180Z,40.5
2023-11-16T05:28:00.605Z,40.7
2023-11-16T05:28:48.039Z,40.6
2023-11-16T05:29:35.453Z,40.7
2023-11-16T05:30:22.897Z,40.8
2023-11-16T05:31:10.342Z,40.9
2023-11-16T05:31:57.814Z,40.9
2023-11-16T05:32:45.323Z,40.8
2023-11-16T05:33:32.841Z,40.9
2023-11-16T05:34:20.359Z,40.9
2023-11-16T05:35:07.802Z,40.9
2023-11-16T05:35:57.534Z,41.0
2023-11-16T05:36:45.711Z,41.1
2023-11-16T05:37:33.156Z,41.2
2023-11-16T05:38:20.585Z,41.1
2023-11-16T05:39:08.002Z,41.1
2023-11-16T05:39:55.440Z,41.1
2023-11-16T05:40:42.924Z,41.1
2023-11-16T05:41:30.348Z,41.1
2023-11-16T05:42:17.767Z,41.0
2023-11-16T05:43:05.191Z,41.0
2023-11-16T05:43:52.618Z,41.0
2023-11-16T05:44:40.143Z,41.2
2023-11-16T05:45:27.611Z,41.3
2023-11-16T05:46:15.101Z,41.3
2023-11-16T05:47:02.601Z,41.3
2023-11-16T05:47:50.124Z,41.4
2023-11-16T05:48:37.650Z,41.5
2023-11-16T05:49:25.101Z,41.5
2023-11-16T05:50:12.522Z,41.5
2023-11-16T05:50:59.957Z,41.3
2023-11-16T05:51:47.526Z,41.4
2023-11-16T05:52:34.951Z,41.4
2023-11-16T05:53:22.458Z,41.4
2023-11-16T05:54:09.949Z,41.4
2023-11-16T05:54:57.402Z,41.4
2023-11-16T05:55:44.840Z,41.4
2023-11-16T05:56:32.286Z,41.2
2023-11-16T05:57:19.742Z,41.2
2023-11-16T05:58:07.257Z,41.3
2023-11-16T05:58:54.750Z,41.3
2023-11-16T05:59:42.474Z,41.3
2023-11-16T06:00:29.965Z,41.3
2023-11-16T06:01:17.465Z,41.4
2023-11-16T06:02:05.198Z,41.6
2023-11-16T06:02:52.653Z,41.7
2023-11-16T06:03:40.183Z,41.9
2023-11-16T06:04:27.760Z,42.1
2023-11-16T06:05:16.563Z,42.3
2023-11-16T06:06:04.147Z,42.1
2023-11-16T06:06:51.648Z,42.5
2023-11-16T06:07:39.129Z,42.5
2023-11-16T06:08:26.560Z,42.2
2023-11-16T06:09:14.027Z,42.4
2023-11-16T06:10:01.471Z,42.4
2023-11-16T06:10:49.132Z,42.1
2023-11-16T06:11:36.591Z,42.0
2023-11-16T06:12:24.340Z,42.1
2023-11-16T06:13:11.816Z,42.3
2023-11-16T06:13:59.298Z,42.4
2023-11-16T06:14:47.242Z,42.5
2023-11-16T06:15:34.788Z,42.5
2023-11-16T06:16:22.250Z,42.5
2023-11-16T06:17:09.716Z,42.5
2023-11-16T06:17:57.191Z,42.4
2023-11-16T06:18:44.934Z,43.1
2023-11-16T06:19:32.407Z,42.5
2023-11-16T06:20:19.874Z,42.5
2023-11-16T06:21:07.379Z,42.5
2023-11-16T06:21:54.815Z,42.6
2023-11-16T06:22:42.274Z,43.1
2023-11-16T06:23:29.736Z,42.5
2023-11-16T06:24:17.247Z,42.5
2023-11-16T06:25:04.721Z,42.5
2023-11-16T06:25:52.230Z,42.5
2023-11-16T06:26:39.735Z,42.5
2023-11-16T06:27:27.329Z,42.5
2023-11-16T06:28:17.565Z,42.6
2023-11-16T06:29:05.015Z,42.7
2023-11-16T06:29:52.454Z,42.6
2023-11-16T06:30:39.913Z,42.6
2023-11-16T06:31:27.387Z,42.6
2023-11-16T06:32:14.823Z,42.6
2023-11-16T06:33:02.309Z,42.6
2023-11-16T06:33:50.267Z,42.6
2023-11-16T06:34:37.782Z,42.6
2023-11-16T06:35:25.246Z,42.7
2023-11-16T06:36:12.747Z,42.6
2023-11-16T06:37:00.227Z,42.6
2023-11-16T06:37:47.703Z,42.5
2023-11-16T06:38:35.184Z,42.6
2023-11-16T06:39:22.680Z,42.5
2023-11-16T06:40:10.141Z,42.5
2023-11-16T06:40:57.637Z,42.4
2023-11-16T06:41:45.789Z,42.4
2023-11-16T06:42:33.281Z,42.3
2023-11-16T06:43:20.733Z,42.4
2023-11-16T06:44:08.255Z,42.3
2023-11-16T06:44:55.665Z,42.4
2023-11-16T06:45:43.184Z,42.4
2023-11-16T06:46:31.191Z,42.5
2023-11-16T06:47:18.681Z,42.6
2023-11-16T06:48:06.164Z,42.5
2023-11-16T06:48:53.738Z,42.5
2023-11-16T06:49:41.191Z,42.6
2023-11-16T06:50:28.602Z,42.6
2023-11-16T06:51:16.124Z,43.2
2023-11-16T06:52:03.616Z,42.6
2023-11-16T06:52:51.038Z,42.8
2023-11-16T06:53:38.460Z,42.7
2023-11-16T06:54:25.911Z,42.7
2023-11-16T06:55:13.359Z,42.7
2023-11-16T06:56:00.859Z,42.5
2023-11-16T06:56:48.307Z,43.1
2023-11-16T06:57:35.799Z,42.5
2023-11-16T06:58:23.289Z,42.5
2023-11-16T06:59:10.712Z,42.5
2023-11-16T06:59:58.172Z,42.7
2023-11-16T07:00:45.651Z,42.7
2023-11-16T07:01:33.091Z,42.6
2023-11-16T07:02:20.701Z,42.7
2023-11-16T07:03:08.324Z,42.7
2023-11-16T07:03:55.933Z,42.7
2023-11-16T07:04:43.474Z,42.6
2023-11-16T07:05:33.796Z,42.5
2023-11-16T07:06:21.452Z,42.6
2023-11-16T07:07:08.912Z,42.6
2023-11-16T07:07:56.403Z,42.5
2023-11-16T07:08:43.967Z,42.5
2023-11-16T07:09:31.499Z,42.6
2023-11-16T07:10:19.032Z,42.6
2023-11-16T07:11:06.510Z,42.6
2023-11-16T07:11:54.007Z,42.7
2023-11-16T07:12:41.579Z,42.7
2023-11-16T07:13:29.120Z,42.5
2023-11-16T07:14:16.579Z,42.5
2023-11-16T07:15:04.592Z,42.7
2023-11-16T07:15:52.187Z,42.7
2023-11-16T07:16:39.750Z,42.7
2023-11-16T07:17:27.645Z,42.7
2023-11-16T07:18:15.341Z,42.5
2023-11-16T07:19:03.120Z,42.5
2023-11-16T07:19:51.198Z,42.6
2023-11-16T07:20:38.708Z,42.7
2023-11-16T07:21:27.000Z,42.8
2023-11-16T07:22:14.528Z,42.8
2023-11-16T07:23:02.243Z,42.8
2023-11-16T07:23:49.996Z,42.9
2023-11-16T07:24:37.604Z,42.8
2023-11-16T07:25:25.178Z,43.0
2023-11-16T07:26:12.922Z,43.0
2023-11-16T07:27:00.447Z,42.9
2023-11-16T07:27:49.822Z,42.9
2023-11-16T07:28:37.905Z,43.0
2023-11-16T07:29:25.378Z,43.0
2023-11-16T07:30:12.907Z,43.0
2023-11-16T07:31:00.647Z,42.9
2023-11-16T07:31:48.318Z,42.9
2023-11-16T07:32:35.806Z,42.8
2023-11-16T07:33:23.442Z,42.8
2023-11-16T07:34:10.974Z,42.8
2023-11-16T07:35:00.102Z,42.7
2023-11-16T07:35:47.584Z,42.7
2023-11-16T07:36:35.113Z,42.7
2023-11-16T07:37:22.627Z,42.9
2023-11-16T07:38:10.125Z,42.9
2023-11-16T07:38:57.715Z,42.9
2023-11-16T07:39:45.479Z,43.1
2023-11-16T07:40:32.980Z,43.1
2023-11-16T07:41:20.461Z,43.1
2023-11-16T07:42:07.944Z,43.1
2023-11-16T07:42:56.285Z,43.1
2023-11-16T07:43:43.814Z,43.0
2023-11-16T07:44:31.381Z,43.0
2023-11-16T07:45:19.144Z,43.0
2023-11-16T07:46:07.106Z,43.0
2023-11-16T07:46:54.632Z,43.0
2023-11-16T07:47:42.124Z,43.0
2023-11-16T07:48:30.081Z,42.9
2023-11-16T07:49:17.946Z,42.9
2023-11-16T07:50:05.481Z,42.9
2023-11-16T07:50:53.014Z,42.8
2023-11-16T07:51:40.646Z,42.8
2023-11-16T07:52:28.239Z,42.8
2023-11-16T07:53:15.725Z,42.8
2023-11-16T07:54:03.229Z,42.8
2023-11-16T07:54:50.714Z,42.8
2023-11-16T07:55:38.197Z,42.8
2023-11-16T07:56:25.809Z,42.8
2023-11-16T07:57:13.342Z,42.8
2023-11-16T07:58:01.064Z,42.8
2023-11-16T07:58:48.543Z,42.8
2023-11-16T07:59:36.148Z,42.8
2023-11-16T08:00:24.233Z,42.8
2023-11-16T08:01:11.813Z,42.8
2023-11-16T08:01:59.569Z,42.8
2023-11-16T08:02:47.110Z,42.8
2023-11-16T08:03:34.894Z,42.8
2023-11-16T08:04:22.608Z,42.8
2023-11-16T08:05:10.740Z,42.8
2023-11-16T08:05:58.319Z,42.8
2023-11-16T08:06:46.175Z,42.8
2023-11-16T08:07:33.733Z,42.7
2023-11-16T08:08:21.210Z,42.7
2023-11-16T08:09:08.696Z,42.7
2023-11-16T08:09:56.434Z,42.6
2023-11-16T08:10:44.018Z,42.6
2023-11-16T08:11:31.613Z,42.7
2023-11-16T08:12:19.347Z,42.7
2023-11-16T08:13:06.891Z,42.7
2023-11-16T08:13:54.433Z,42.7
2023-11-16T08:14:41.998Z,42.9
2023-11-16T08:15:29.712Z,42.9
2023-11-16T08:16:17.258Z,42.8
2023-11-16T08:17:04.875Z,42.8
2023-11-16T08:17:52.326Z,42.8
2023-11-16T08:18:39.850Z,42.8
2023-11-16T08:19:27.365Z,42.9
2023-11-16T08:20:14.833Z,43.0
2023-11-16T08:21:02.310Z,43.0
2023-11-16T08:21:49.794Z,43.1
2023-11-16T08:22:37.252Z,43.2
2023-11-16T08:23:27.003Z,43.1
2023-11-16T08:24:15.978Z,43.0
2023-11-16T08:25:03.672Z,43.0
2023-11-16T08:25:51.447Z,43.1
2023-11-16T08:26:38.930Z,43.7
2023-11-16T08:27:26.394Z,43.1
2023-11-16T08:28:13.850Z,43.0
2023-11-16T08:29:01.287Z,43.0
2023-11-16T08:29:48.727Z,43.1
2023-11-16T08:30:36.202Z,43.1
2023-11-16T08:31:23.670Z,43.1
2023-11-16T08:32:11.172Z,43.0
2023-11-16T08:32:58.628Z,43.0
2023-11-16T08:33:46.180Z,43.0
2023-11-16T08:34:33.684Z,43.0
2023-11-16T08:35:21.128Z,43.1
2023-11-16T08:36:08.537Z,43.1
2023-11-16T08:36:55.995Z,43.1
2023-11-16T08:37:43.528Z,43.1
2023-11-16T08:38:31.035Z,43.1
2023-11-16T08:39:18.517Z,43.1
2023-11-16T08:40:05.946Z,43.1
2023-11-16T08:40:53.427Z,43.1
2023-11-16T08:41:40.872Z,43.1
2023-11-16T08:42:28.316Z,43.1
2023-11-16T08:43:15.806Z,43.1
2023-11-16T08:44:03.235Z,43.0
2023-11-16T08:44:50.948Z,43.0
2023-11-16T08:45:38.712Z,43.0
2023-11-16T08:46:26.554Z,42.8
2023-11-16T08:47:14.285Z,42.8
2023-11-16T08:48:01.763Z,42.7
2023-11-16T08:48:56.706Z,42.7
2023-11-16T08:49:44.978Z,42.8
2023-11-16T08:50:32.817Z,42.8
2023-11-16T08:51:20.969Z,42.8
2023-11-16T08:52:08.986Z,42.7
2023-11-16T08:52:59.232Z,42.7
2023-11-16T08:53:46.945Z,42.7
2023-11-16T08:54:34.869Z,42.9
2023-11-16T08:55:22.755Z,42.8
2023-11-16T08:56:10.472Z,42.7
2023-11-16T08:56:58.176Z,42.7
2023-11-16T08:57:45.618Z,42.6
2023-11-16T08:58:33.085Z,42.5
2023-11-16T08:59:20.494Z,42.6
2023-11-16T09:00:07.938Z,42.6
2023-11-16T09:00:55.416Z,42.5
2023-11-16T09:01:42.964Z,42.4
2023-11-16T09:02:30.725Z,42.3
2023-11-16T09:03:18.275Z,42.3
2023-11-16T09:04:05.875Z,42.1
2023-11-16T09:04:53.369Z,42.2
2023-11-16T09:05:40.827Z,42.2
2023-11-16T09:06:28.266Z,42.2
2023-11-16T09:07:15.734Z,42.2
2023-11-16T09:08:03.176Z,42.2
2023-11-16T09:08:50.592Z,42.2
2023-11-16T09:09:38.679Z,42.3
2023-11-16T09:10:26.356Z,42.3
2023-11-16T09:11:13.985Z,42.3
2023-11-16T09:12:01.529Z,42.3
2023-11-16T09:12:49.053Z,42.4
2023-11-16T09:13:36.516Z,42.3
2023-11-16T09:14:25.719Z,42.3
2023-11-16T09:15:14.600Z,42.4
2023-11-16T09:16:02.074Z,42.4
2023-11-16T09:16:56.076Z,42.4
2023-11-16T09:17:47.039Z,42.5
2023-11-16T09:18:34.655Z,42.6
2023-11-16T09:19:22.495Z,42.6
2023-11-16T09:20:10.033Z,42.6
2023-11-16T09:20:57.526Z,42.5
2023-11-16T09:21:45.049Z,42.4
2023-11-16T09:22:32.572Z,42.4
2023-11-16T09:23:19.997Z,42.3
2023-11-16T09:24:07.470Z,42.4
2023-11-16T09:24:54.987Z,42.4
2023-11-16T09:25:42.548Z,42.4
2023-11-16T09:26:29.988Z,42.4
2023-11-16T09:27:17.540Z,42.5
2023-11-16T09:28:05.578Z,42.5
2023-11-16T09:29:01.056Z,42.5
2023-11-16T09:29:50.436Z,42.5
2023-11-16T09:30:37.945Z,42.7
2023-11-16T09:31:25.486Z,42.6
2023-11-16T09:32:13.259Z,42.6
2023-11-16T09:33:00.794Z,42.6
2023-11-16T09:33:48.472Z,42.6
2023-11-16T09:34:35.939Z,42.6
2023-11-16T09:35:23.388Z,42.9
2023-11-16T09:36:10.884Z,42.3
2023-11-16T09:36:58.384Z,42.3
2023-11-16T09:37:45.832Z,42.3
2023-11-16T09:38:33.288Z,42.2
2023-11-16T09:39:20.813Z,42.2
2023-11-16T09:40:08.254Z,42.2
2023-11-16T09:40:55.777Z,42.0
2023-11-16T09:41:43.273Z,41.9
2023-11-16T09:42:30.707Z,42.0
2023-11-16T09:43:18.162Z,42.1
2023-11-16T09:44:05.676Z,42.2
2023-11-16T09:44:53.197Z,42.3
2023-11-16T09:45:40.764Z,42.3
2023-11-16T09:46:28.357Z,42.3
2023-11-16T09:47:16.313Z,42.3
2023-11-16T09:48:03.748Z,42.3
2023-11-16T09:48:51.491Z,42.3
2023-11-16T09:49:39.155Z,42.4
2023-11-16T09:50:26.784Z,42.3
2023-11-16T09:51:14.213Z,42.3
2023-11-16T09:52:01.663Z,42.3
2023-11-16T09:52:49.151Z,42.3
2023-11-16T09:53:36.598Z,42.3
2023-11-16T09:54:24.250Z,42.2
2023-11-16T09:55:11.737Z,42.1
2023-11-16T09:55:59.420Z,42.0
2023-11-16T09:56:49.587Z,41.9
2023-11-16T09:57:37.208Z,41.8
2023-11-16T09:58:24.710Z,41.8
2023-11-16T09:59:12.161Z,41.9
2023-11-16T09:59:59.608Z,42.0
2023-11-16T10:00:47.144Z,42.0
2023-11-16T10:01:34.667Z,42.2
2023-11-16T10:02:22.136Z,42.1
2023-11-16T10:03:09.630Z,42.1
2023-11-16T10:03:57.353Z,42.3
2023-11-16T10:04:44.990Z,42.2
2023-11-16T10:05:32.487Z,42.2
2023-11-16T10:06:20.214Z,42.3
2023-11-16T10:07:07.709Z,42.4
2023-11-16T10:07:55.171Z,42.4
2023-11-16T10:08:42.667Z,42.4
2023-11-16T10:09:30.232Z,42.4
2023-11-16T10:10:17.749Z,42.5
2023-11-16T10:11:05.201Z,42.5
2023-11-16T10:11:52.667Z,42.5
2023-11-16T10:12:40.142Z,42.5
2023-11-16T10:13:27.637Z,42.6
2023-11-16T10:14:15.192Z,42.5
2023-11-16T10:15:02.654Z,42.4
2023-11-16T10:15:50.267Z,42.3
2023-11-16T10:16:38.211Z,42.3
2023-11-16T10:17:25.674Z,42.5
2023-11-16T10:18:13.109Z,42.4
2023-11-16T10:19:00.642Z,42.5
2023-11-16T10:19:48.120Z,42.7
2023-11-16T10:20:35.566Z,42.8
2023-11-16T10:21:23.131Z,43.1
2023-11-16T10:22:10.860Z,43.3
2023-11-16T10:22:58.590Z,44.3
2023-11-16T10:23:46.064Z,44.9
2023-11-16T10:24:33.524Z,44.8
2023-11-16T10:25:20.969Z,44.5
2023-11-16T10:26:08.426Z,44.5
2023-11-16T10:26:56.192Z,44.2
2023-11-16T10:27:43.775Z,44.1
2023-11-16T10:28:31.242Z,43.9
2023-11-16T10:29:18.786Z,43.7
2023-11-16T10:30:06.276Z,43.6
2023-11-16T10:30:54.047Z,43.5
2023-11-16T10:31:41.576Z,43.3
2023-11-16T10:32:29.029Z,43.2
2023-11-16T10:33:16.453Z,43.0
2023-11-16T10:34:03.935Z,42.9
2023-11-16T10:34:51.404Z,42.7
2023-11-16T10:35:38.867Z,42.7
2023-11-16T10:36:26.357Z,42.7
2023-11-16T10:37:13.818Z,42.7
2023-11-16T10:38:01.265Z,42.8
2023-11-16T10:38:48.709Z,42.7
2023-11-16T10:39:36.159Z,42.6
2023-11-16T10:40:23.626Z,42.5
2023-11-16T10:41:11.103Z,42.5
2023-11-16T10:41:58.534Z,42.5
2023-11-16T10:42:46.582Z,42.5
2023-11-16T10:43:34.112Z,42.5
2023-11-16T10:44:21.561Z,42.4
2023-11-16T10:45:09.009Z,42.3
2023-11-16T10:45:56.638Z,42.3
2023-11-16T10:46:44.502Z,42.3
2023-11-16T10:47:32.101Z,42.4
2023-11-16T10:48:19.770Z,42.5
2023-11-16T10:49:07.313Z,42.5
2023-11-16T10:49:55.037Z,42.5
2023-11-16T10:50:42.657Z,42.4
2023-11-16T10:51:30.146Z,42.3
2023-11-16T10:52:17.634Z,42.3
2023-11-16T10:53:05.085Z,42.1
2023-11-16T10:53:52.585Z,42.1
2023-11-16T10:54:40.032Z,42.2
2023-11-16T10:55:29.427Z,42.1
2023-11-16T10:56:17.209Z,42.2
2023-11-16T10:57:04.638Z,42.2
2023-11-16T10:57:52.091Z,42.3
2023-11-16T10:58:39.573Z,42.2
2023-11-16T10:59:27.031Z,42.2
2023-11-16T11:00:14.485Z,42.3
2023-11-16T11:01:01.959Z,42.4
2023-11-16T11:01:49.486Z,42.4
2023-11-16T11:02:37.289Z,42.4
2023-11-16T11:03:24.935Z,42.3
2023-11-16T11:04:12.933Z,42.2
2023-11-16T11:05:00.621Z,42.2
2023-11-16T11:05:48.122Z,42.1
2023-11-16T11:06:35.863Z,42.0
2023-11-16T11:07:25.300Z,42.0
2023-11-16T11:08:14.231Z,41.8
2023-11-16T11:09:01.665Z,41.8
2023-11-16T11:09:49.143Z,41.6
2023-11-16T11:10:36.605Z,41.7
2023-11-16T11:11:24.026Z,41.7
2023-11-16T11:12:11.468Z,41.6
2023-11-16T11:12:59.141Z,41.6
2023-11-16T11:13:46.619Z,41.6
2023-11-16T11:14:34.241Z,41.7
2023-11-16T11:22:06.723Z,41.6
2023-11-16T11:29:39.237Z,42.1
2023-11-16T11:37:14.407Z,42.6
2023-11-16T11:44:49.015Z,43.0
2023-11-16T11:52:21.991Z,43.1
2023-11-16T11:55:44.400Z,43.2
2023-11-16T11:56:31.868Z,43.2
2023-11-16T11:57:27.427Z,43.2
2023-11-16T11:58:16.734Z,43.6
2023-11-16T11:59:04.237Z,43.4
2023-11-16T11:59:51.685Z,43.3
2023-11-16T12:00:39.353Z,43.4
2023-11-16T12:01:27.088Z,42.8
2023-11-16T12:02:15.200Z,42.0
2023-11-16T12:03:03.123Z,42.1
2023-11-16T12:04:52.377Z,41.4
2023-11-16T12:05:40.036Z,41.4
2023-11-16T12:06:27.662Z,41.3
2023-11-16T12:07:15.140Z,41.4
2023-11-16T12:08:02.680Z,41.4
2023-11-16T12:08:50.181Z,41.4
2023-11-16T12:09:37.818Z,41.1
2023-11-16T12:10:25.336Z,41.1
2023-11-16T12:11:12.776Z,41.0
2023-11-16T12:12:01.013Z,41.1
2023-11-16T12:12:48.538Z,40.8
2023-11-16T12:13:36.148Z,41.0
2023-11-16T12:14:25.189Z,41.1
2023-11-16T12:15:14.013Z,41.0
2023-11-16T12:16:01.504Z,41.0
2023-11-16T12:16:48.993Z,41.0
2023-11-16T12:17:36.470Z,41.1
2023-11-16T12:18:23.923Z,41.1
2023-11-16T12:19:11.390Z,41.1
2023-11-16T12:19:58.838Z,41.0
2023-11-16T12:20:46.299Z,41.1
2023-11-16T12:21:33.824Z,41.0
2023-11-16T12:22:21.284Z,40.8
2023-11-16T12:23:08.705Z,40.8
2023-11-16T12:23:56.148Z,40.6
2023-11-16T12:24:43.647Z,41.2
2023-11-16T12:25:31.639Z,40.7
2023-11-16T12:26:19.079Z,40.7
2023-11-16T12:27:06.559Z,40.4
2023-11-16T12:27:54.066Z,40.6
2023-11-16T12:28:41.537Z,40.5
2023-11-16T12:29:29.000Z,40.6
2023-11-16T12:30:17.379Z,40.8
2023-11-16T12:31:04.996Z,40.9
2023-11-16T12:31:52.654Z,40.9
2023-11-16T12:32:40.284Z,40.8
2023-11-16T12:33:27.804Z,40.8
2023-11-16T12:34:15.285Z,40.8
2023-11-16T12:35:02.720Z,40.7
2023-11-16T12:35:50.172Z,40.8
2023-11-16T12:36:37.653Z,40.8
2023-11-16T12:37:25.130Z,40.7
2023-11-16T12:38:12.582Z,40.8
2023-11-16T12:39:00.163Z,40.7
2023-11-16T12:39:47.751Z,40.4
2023-11-16T12:40:35.374Z,40.4
2023-11-16T12:41:25.015Z,40.3
2023-11-16T12:42:12.868Z,40.2
2023-11-16T12:43:00.357Z,39.9
2023-11-16T12:43:47.831Z,39.9
2023-11-16T12:44:35.390Z,39.9
2023-11-16T12:45:22.860Z,40.1
2023-11-16T12:46:10.495Z,40.0
2023-11-16T12:46:58.019Z,40.3
2023-11-16T12:47:45.482Z,40.0
2023-11-16T12:48:33.016Z,39.8
2023-11-16T12:49:20.589Z,39.9
2023-11-16T12:50:08.038Z,39.8
2023-11-16T12:50:55.496Z,39.8
2023-11-16T12:51:42.954Z,39.6
2023-11-16T12:52:30.436Z,40.0
2023-11-16T12:53:17.860Z,39.6
2023-11-16T12:54:05.296Z,39.8
2023-11-16T12:54:52.843Z,39.9
2023-11-16T12:55:40.331Z,40.1
2023-11-16T12:56:27.797Z,40.5
2023-11-16T12:57:15.252Z,40.2
2023-11-16T12:58:02.785Z,40.0
2023-11-16T12:58:50.279Z,39.7
2023-11-16T12:59:37.833Z,39.6
2023-11-16T13:00:25.652Z,39.6
2023-11-16T13:01:13.469Z,39.8
2023-11-16T13:02:01.109Z,39.8
2023-11-16T13:02:48.636Z,39.8
2023-11-16T13:03:43.858Z,39.7
2023-11-16T13:04:33.653Z,39.6
2023-11-16T13:05:21.313Z,39.3
2023-11-16T13:06:08.900Z,39.4
2023-11-16T13:06:56.359Z,39.6
2023-11-16T13:07:43.829Z,39.7
2023-11-16T13:08:31.997Z,39.9
2023-11-16T13:09:19.478Z,39.9
2023-11-16T13:10:07.041Z,39.9
2023-11-16T13:10:54.576Z,40.1
2023-11-16T13:11:42.044Z,40.2
2023-11-16T13:12:29.735Z,40.0
2023-11-16T13:13:17.237Z,39.9
2023-11-16T13:14:04.685Z,39.9
2023-11-16T13:14:52.177Z,40.0
2023-11-16T13:15:39.711Z,39.8
2023-11-16T13:16:27.296Z,39.8
2023-11-16T13:17:14.829Z,39.5
2023-11-16T13:18:02.312Z,39.4
2023-11-16T13:18:50.217Z,39.4
2023-11-16T13:19:37.775Z,40.3
2023-11-16T13:20:25.207Z,39.8
2023-11-16T13:21:12.632Z,39.8
2023-11-16T13:22:00.128Z,39.7
2023-11-16T13:22:47.614Z,39.5
2023-11-16T13:23:35.108Z,39.6
2023-11-16T13:24:22.587Z,39.9
2023-11-16T13:25:10.061Z,39.9
2023-11-16T13:25:57.512Z,40.0
2023-11-16T13:26:44.918Z,40.0
2023-11-16T13:27:38.894Z,39.8
2023-11-16T13:28:29.844Z,39.5
2023-11-16T13:29:17.351Z,39.8
2023-11-16T13:30:04.907Z,39.6
2023-11-16T13:30:52.408Z,39.3
2023-11-16T13:31:39.944Z,39.3
2023-11-16T13:32:27.951Z,38.9
2023-11-16T13:33:15.394Z,39.1
2023-11-16T13:34:02.947Z,39.3
2023-11-16T13:34:50.962Z,39.3
2023-11-16T13:35:38.471Z,39.3
2023-11-16T13:36:25.967Z,39.4
2023-11-16T13:37:13.405Z,39.4
2023-11-16T13:38:00.882Z,39.1
2023-11-16T13:38:48.398Z,38.9
2023-11-16T13:39:35.925Z,39.1
2023-11-16T13:40:23.486Z,39.3
2023-11-16T13:41:12.649Z,39.5
2023-11-16T13:42:01.534Z,39.8
2023-11-16T13:42:49.019Z,39.5
2023-11-16T13:43:36.540Z,39.5
2023-11-16T13:44:24.005Z,39.8
2023-11-16T13:45:11.436Z,39.9
2023-11-16T13:45:58.909Z,39.7
2023-11-16T13:46:46.464Z,39.7
2023-11-16T13:47:34.149Z,39.6
2023-11-16T13:48:21.976Z,39.1
2023-11-16T13:49:09.401Z,39.3
2023-11-16T13:49:56.856Z,39.1
2023-11-16T13:50:44.288Z,38.9
2023-11-16T13:51:31.846Z,38.9
2023-11-16T13:52:19.397Z,38.9
2023-11-16T13:53:06.849Z,39.0
2023-11-16T13:53:54.328Z,39.1
2023-11-16T13:54:41.798Z,39.1
2023-11-16T13:55:29.285Z,39.1
2023-11-16T13:56:16.723Z,39.2
2023-11-16T13:57:04.194Z,39.4
2023-11-16T13:57:52.145Z,38.9
2023-11-16T13:58:39.615Z,39.1
2023-11-16T13:59:27.086Z,39.4
2023-11-16T14:00:14.547Z,39.7
2023-11-16T14:01:02.099Z,39.9
2023-11-16T14:01:49.744Z,39.8
2023-11-16T14:02:37.290Z,39.7
2023-11-16T14:03:24.876Z,39.7
2023-11-16T14:04:12.579Z,39.7
2023-11-16T14:05:00.042Z,39.8
2023-11-16T14:05:48.867Z,39.7
2023-11-16T14:06:36.397Z,39.5
2023-11-16T14:07:23.844Z,39.5
2023-11-16T14:08:11.285Z,39.5
2023-11-16T14:08:58.874Z,39.3
2023-11-16T14:09:46.364Z,38.9
2023-11-16T14:10:33.906Z,38.8
2023-11-16T14:11:21.455Z,39.0
2023-11-16T14:12:09.032Z,39.0
2023-11-16T14:12:56.815Z,39.0
2023-11-16T14:13:44.343Z,39.0
2023-11-16T14:14:31.802Z,39.1
2023-11-16T14:15:19.289Z,39.3
2023-11-16T14:16:06.878Z,39.4
2023-11-16T14:16:54.506Z,38.7
2023-11-16T14:17:42.075Z,38.7
2023-11-16T14:18:29.775Z,39.1
2023-11-16T14:19:17.281Z,39.1
2023-11-16T14:20:04.719Z,39.1
2023-11-16T14:20:52.161Z,38.7
2023-11-16T14:21:39.596Z,38.7
2023-11-16T14:22:27.030Z,38.9
2023-11-16T14:23:14.591Z,39.0
2023-11-16T14:24:06.153Z,39.0
2023-11-16T14:24:54.804Z,39.0
2023-11-16T14:25:47.457Z,38.8
2023-11-16T14:26:35.198Z,38.5
2023-11-16T14:27:22.650Z,38.4
2023-11-16T14:28:10.166Z,38.4
2023-11-16T14:28:57.623Z,38.4
2023-11-16T14:29:45.325Z,38.4
2023-11-16T14:30:33.388Z,38.4
2023-11-16T14:31:21.198Z,38.3
2023-11-16T14:32:08.864Z,38.5
2023-11-16T14:32:56.359Z,38.4
2023-11-16T14:33:43.808Z,38.3
2023-11-16T14:34:31.331Z,38.2
2023-11-16T14:35:21.220Z,38.0
2023-11-16T14:36:09.858Z,38.3
2023-11-16T14:36:57.396Z,38.5
2023-11-16T14:37:44.962Z,38.6
2023-11-16T14:38:32.384Z,38.6
2023-11-16T14:39:19.805Z,38.4
2023-11-16T14:40:07.282Z,38.3
2023-11-16T14:40:54.759Z,38.3
2023-11-16T14:42:14.541Z,38.0
2023-11-16T14:43:02.138Z,37.9
2023-11-16T14:43:49.574Z,37.9
2023-11-16T14:44:37.986Z,37.9
2023-11-16T14:45:25.355Z,37.8
2023-11-16T14:46:12.782Z,37.9
2023-11-16T14:47:01.090Z,37.8
2023-11-16T14:47:49.489Z,38.1
2023-11-16T14:48:36.948Z,38.2
2023-11-16T14:49:24.314Z,38.2
2023-11-16T14:50:11.856Z,38.2
2023-11-16T14:50:59.215Z,38.4
2023-11-16T14:51:46.596Z,38.5
2023-11-16T14:52:34.003Z,38.7
2023-11-16T14:53:22.714Z,38.8
2023-11-16T14:54:10.649Z,38.9
2023-11-16T14:54:58.135Z,38.7
2023-11-16T14:55:45.590Z,38.8
2023-11-16T14:56:33.148Z,38.6
2023-11-16T14:57:20.523Z,38.3
2023-11-16T14:58:07.880Z,38.1
2023-11-16T14:58:55.237Z,38.0
2023-11-16T14:59:42.648Z,38.1
2023-11-16T15:00:29.981Z,38.2
2023-11-16T15:01:17.373Z,38.5
2023-11-16T15:02:04.756Z,38.7
2023-11-16T15:02:52.411Z,38.8
2023-11-16T15:03:39.983Z,38.8
2023-11-16T15:04:27.466Z,38.7
2023-11-16T15:05:19.208Z,39.0
2023-11-16T15:06:09.496Z,39.1
2023-11-16T15:06:56.965Z,39.3
2023-11-16T15:07:44.386Z,39.7
2023-11-16T15:08:31.731Z,39.6
2023-11-16T15:09:19.168Z,39.6
2023-11-16T15:10:06.669Z,40.1
2023-11-16T15:10:54.045Z,39.5
2023-11-16T15:11:41.477Z,39.2
2023-11-16T15:12:28.827Z,39.2
2023-11-16T15:13:16.146Z,38.9
2023-11-16T15:14:03.552Z,38.7
2023-11-16T15:14:50.897Z,38.6
2023-11-16T15:15:38.328Z,38.5
2023-11-16T15:16:25.783Z,38.2
2023-11-16T15:17:13.141Z,38.1
2023-11-16T15:18:00.495Z,38.1
2023-11-16T15:18:47.928Z,38.1
2023-11-16T15:19:35.264Z,38.4
2023-11-16T15:20:27.251Z,38.5
2023-11-16T15:21:17.299Z,38.5
2023-11-16T15:22:06.292Z,38.5
2023-11-16T15:22:53.789Z,38.6
2023-11-16T15:23:41.245Z,38.6
2023-11-16T15:24:28.622Z,38.1
2023-11-16T15:25:16.198Z,38.2
2023-11-16T15:26:07.775Z,38.1
2023-11-16T15:26:57.101Z,38.3
2023-11-16T15:27:44.602Z,38.3
2023-11-16T15:28:32.015Z,38.2
2023-11-16T15:29:19.447Z,38.3
2023-11-16T15:30:06.916Z,38.3
2023-11-16T15:30:54.380Z,38.5
2023-11-16T15:31:41.789Z,38.9
2023-11-16T15:32:29.174Z,38.8
2023-11-16T15:33:16.598Z,38.4
2023-11-16T15:34:04.100Z,38.2
2023-11-16T15:34:51.509Z,37.9
2023-11-16T15:35:38.840Z,37.9
2023-11-16T15:36:26.220Z,37.7
2023-11-16T15:37:13.663Z,37.7
2023-11-16T15:38:01.068Z,37.9
2023-11-16T15:38:48.379Z,37.8
2023-11-16T15:39:35.827Z,37.8
2023-11-16T15:40:23.160Z,37.9
2023-11-16T15:41:10.509Z,38.0
2023-11-16T15:41:57.937Z,38.1
2023-11-16T15:42:45.384Z,37.9
2023-11-16T15:43:32.817Z,37.8
2023-11-16T15:44:20.257Z,37.8
2023-11-16T15:45:07.697Z,37.8
2023-11-16T15:45:56.707Z,37.9
2023-11-16T15:46:45.502Z,37.8
2023-11-16T15:47:33.026Z,37.8
2023-11-16T15:48:20.773Z,37.8
2023-11-16T15:49:08.284Z,37.8
2023-11-16T15:49:55.809Z,37.8
2023-11-16T15:50:43.255Z,37.7
2023-11-16T15:51:30.748Z,37.7
2023-11-16T15:52:18.237Z,37.8
2023-11-16T15:53:05.741Z,37.8
2023-11-16T15:53:54.035Z,37.9
2023-11-16T15:54:41.495Z,37.9
2023-11-16T15:55:28.928Z,37.9
2023-11-16T15:56:16.351Z,38.0
2023-11-16T15:57:03.812Z,38.0
2023-11-16T15:57:51.343Z,38.1